Time;durP1;ratioP1;P1;durP2;ratioP2;P2;SDS_P1;SDS_P2;PMS_P1;PMS_P2;Temp;Humidity;BMP_temperature;BMP_pressure;BME280_temperature;BME280_humidity;BME280_pressure;Samples;Min_cycle;Max_cycle;Signal;HPM_P1;HPM_P2
2024/02/22 00:02:28;;;;;;;2.70;1.98;;;;;;;9.59;100.00;99791.88;5104251;28;20517;-73
2024/02/22 00:05:16;;;;;;;2.88;1.90;;;;;;;9.60;100.00;99791.59;5118898;27;20047;-71
2024/02/22 00:08:05;;;;;;;2.15;1.90;;;;;;;9.60;100.00;99782.63;5117492;28;20051;-72
2024/02/22 00:10:54;;;;;;;2.05;1.88;;;;;;;9.57;100.00;99777.75;5103414;28;20048;-72
2024/02/22 00:13:42;;;;;;;1.90;1.80;;;;;;;9.58;100.00;99776.66;5118353;28;20040;-73
2024/02/22 00:16:30;;;;;;;2.05;1.55;;;;;;;9.61;100.00;99776.09;5119193;27;20388;-73
2024/02/22 00:19:18;;;;;;;2.28;1.83;;;;;;;9.61;100.00;99767.94;5119200;28;20044;-73
2024/02/22 00:22:06;;;;;;;3.05;1.88;;;;;;;9.70;100.00;99765.41;5104891;28;20040;-73
2024/02/22 00:24:54;;;;;;;2.15;2.00;;;;;;;9.65;100.00;99749.94;5090911;27;20131;-72
2024/02/22 00:27:42;;;;;;;4.05;1.60;;;;;;;9.67;100.00;99745.03;5138714;27;20051;-72
2024/02/22 00:30:30;;;;;;;1.92;1.83;;;;;;;9.68;100.00;99734.97;5120081;28;20047;-72
2024/02/22 00:33:18;;;;;;;2.85;1.90;;;;;;;9.65;100.00;99732.81;5103475;28;20100;-71
2024/02/22 00:36:06;;;;;;;1.50;1.40;;;;;;;9.66;100.00;99737.97;5103106;28;20044;-73
2024/02/22 00:38:54;;;;;;;2.80;1.73;;;;;;;9.64;100.00;99726.56;5111446;27;20172;-73
2024/02/22 00:41:42;;;;;;;2.08;1.90;;;;;;;9.66;100.00;99735.25;5103850;28;20625;-74
2024/02/22 00:44:30;;;;;;;2.05;1.70;;;;;;;9.66;100.00;99726.28;5104721;28;20051;-73
2024/02/22 00:47:18;;;;;;;3.03;2.05;;;;;;;9.65;100.00;99722.75;5103951;28;20081;-73
2024/02/22 00:50:07;;;;;;;1.90;1.80;;;;;;;9.64;100.00;99712.94;5104118;27;20035;-73
2024/02/22 00:52:56;;;;;;;2.05;1.85;;;;;;;9.67;100.00;99717.84;5123999;27;20047;-73
2024/02/22 00:55:44;;;;;;;2.20;1.77;;;;;;;9.66;100.00;99707.22;5124755;27;20054;-73
2024/02/22 00:58:32;;;;;;;3.33;1.80;;;;;;;9.66;100.00;99705.31;5109988;28;20108;-73
2024/02/22 01:01:20;;;;;;;1.98;1.67;;;;;;;9.67;100.00;99700.69;5086018;28;20040;-73
2024/02/22 01:04:10;;;;;;;2.00;1.80;;;;;;;9.68;100.00;99694.97;5083856;28;20039;-72
2024/02/22 01:07:01;;;;;;;2.13;2.00;;;;;;;9.65;100.00;99684.69;5098449;28;20506;-72
2024/02/22 01:09:49;;;;;;;3.92;2.30;;;;;;;9.66;100.00;99686.28;5089158;27;20075;-72
2024/02/22 01:12:37;;;;;;;1.70;1.60;;;;;;;9.67;100.00;99679.75;5138179;27;20439;-71
2024/02/22 01:15:25;;;;;;;2.03;1.83;;;;;;;9.68;100.00;99686.81;5145667;27;20059;-72
2024/02/22 01:18:13;;;;;;;2.30;2.10;;;;;;;9.69;100.00;99674.84;5134384;28;20020;-72
2024/02/22 01:21:01;;;;;;;2.10;2.00;;;;;;;9.71;100.00;99669.09;5122705;28;20048;-72
2024/02/22 01:23:49;;;;;;;2.63;2.22;;;;;;;9.69;100.00;99676.72;5137796;28;20023;-72
2024/02/22 01:26:37;;;;;;;2.15;1.95;;;;;;;9.69;100.00;99672.13;5125300;28;20040;-72
2024/02/22 01:29:27;;;;;;;2.15;1.98;;;;;;;9.70;100.00;99672.94;5114968;28;20484;-72
2024/02/22 01:32:15;;;;;;;2.10;1.90;;;;;;;9.70;100.00;99664.78;5115241;28;20039;-73
2024/02/22 01:35:03;;;;;;;1.85;1.75;;;;;;;9.71;100.00;99661.75;5100559;28;20043;-72
2024/02/22 01:37:51;;;;;;;2.00;1.80;;;;;;;9.73;100.00;99664.97;5085494;28;20098;-71
2024/02/22 01:40:39;;;;;;;1.60;1.50;;;;;;;9.73;100.00;99661.47;5087887;28;20050;-71
2024/02/22 01:43:29;;;;;;;1.80;1.70;;;;;;;9.73;100.00;99661.47;5101204;28;20433;-72
2024/02/22 01:46:17;;;;;;;1.90;1.70;;;;;;;9.76;100.00;99653.50;5117998;28;20047;-72
2024/02/22 01:49:06;;;;;;;2.10;1.90;;;;;;;9.74;100.00;99653.03;5124925;27;20525;-72
2024/02/22 01:51:58;;;;;;;3.05;1.85;;;;;;;9.77;100.00;99646.19;5106134;27;20469;-72
2024/02/22 01:54:46;;;;;;;2.20;1.80;;;;;;;9.77;100.00;99638.03;5094660;28;20051;-72
2024/02/22 01:57:35;;;;;;;2.22;1.60;;;;;;;9.77;100.00;99636.09;5089032;28;20079;-73
2024/02/22 02:00:24;;;;;;;3.05;1.98;;;;;;;9.78;100.00;99632.28;5099208;28;20047;-73
2024/02/22 02:03:12;;;;;;;2.00;1.83;;;;;;;9.78;100.00;99632.28;5099412;28;20040;-73
2024/02/22 02:06:00;;;;;;;1.80;1.70;;;;;;;9.80;100.00;99629.28;5099241;28;20046;-73
2024/02/22 02:08:48;;;;;;;2.45;1.70;;;;;;;9.82;100.00;99627.88;5085425;28;20048;-73
2024/02/22 02:11:38;;;;;;;2.53;2.33;;;;;;;9.83;100.00;99612.34;5098727;28;20043;-73
2024/02/22 02:14:27;;;;;;;2.22;2.03;;;;;;;9.82;100.00;99605.31;5113548;28;20054;-73
2024/02/22 02:17:15;;;;;;;2.17;1.88;;;;;;;9.84;100.00;99605.00;5088225;27;20141;-73
2024/02/22 02:20:07;;;;;;;3.75;2.22;;;;;;;9.86;100.00;99600.06;5118766;27;20051;-68
2024/02/22 02:23:30;;;;;;;3.30;1.98;;;;;;;9.87;100.00;99604.44;5113690;28;20043;-72
2024/02/22 02:26:18;;;;;;;2.70;1.92;;;;;;;9.86;100.00;99606.34;5050956;28;20141;-74
2024/02/22 02:29:07;;;;;;;2.45;2.25;;;;;;;9.87;100.00;99601.72;5113287;27;20126;-73
2024/02/22 02:31:55;;;;;;;2.20;2.00;;;;;;;9.87;100.00;99601.72;5113945;28;20040;-73
2024/02/22 02:34:43;;;;;;;3.63;2.40;;;;;;;9.87;100.00;99597.06;5085047;28;20048;-73
2024/02/22 02:37:31;;;;;;;3.72;2.40;;;;;;;9.88;100.00;99601.41;5098608;28;20043;-72
2024/02/22 02:40:19;;;;;;;2.95;2.30;;;;;;;9.87;100.00;99593.56;5084955;28;20412;-73
2024/02/22 02:43:07;;;;;;;2.47;2.20;;;;;;;9.86;100.00;99594.63;5113142;28;20051;-73
2024/02/22 02:45:55;;;;;;;1.88;1.77;;;;;;;9.87;100.00;99590.84;5085406;28;20514;-73
2024/02/22 02:48:43;;;;;;;2.80;2.25;;;;;;;9.87;100.00;99582.66;5113774;27;20047;-72
2024/02/22 02:51:32;;;;;;;2.92;2.13;;;;;;;9.87;100.00;99577.22;5085524;28;20046;-72
2024/02/22 02:54:20;;;;;;;3.53;2.60;;;;;;;9.87;100.00;99583.47;5079449;28;20052;-72
2024/02/22 02:57:08;;;;;;;2.75;2.22;;;;;;;9.89;100.00;99572.31;5092078;28;20054;-73
2024/02/22 02:59:56;;;;;;;3.78;2.17;;;;;;;9.89;100.00;99573.09;5093199;28;20137;-72
2024/02/22 03:02:44;;;;;;;3.50;2.47;;;;;;;9.92;100.00;99572.50;5098601;27;20447;-72
2024/02/22 03:05:32;;;;;;;4.72;2.65;;;;;;;9.91;100.00;99564.63;5117004;27;20406;-72
2024/02/22 03:08:20;;;;;;;4.10;2.90;;;;;;;9.90;100.00;99569.28;5132563;27;20187;-71
2024/02/22 03:11:08;;;;;;;4.20;2.70;;;;;;;9.90;100.00;99563.84;5090809;27;20043;-71
2024/02/22 03:13:57;;;;;;;6.30;3.33;;;;;;;9.91;100.00;99564.63;5110468;27;20125;-72
2024/02/22 03:16:45;;;;;;;6.03;3.13;;;;;;;9.92;100.00;99577.16;5083633;28;20039;-72
2024/02/22 03:19:33;;;;;;;5.60;3.35;;;;;;;9.91;100.00;99565.47;5112363;28;20043;-72
2024/02/22 03:22:21;;;;;;;6.97;3.60;;;;;;;9.92;100.00;99571.72;5085575;28;20043;-72
2024/02/22 03:25:10;;;;;;;6.55;3.60;;;;;;;9.93;100.00;99563.25;5113717;28;20047;-72
2024/02/22 03:27:58;;;;;;;6.88;3.80;;;;;;;9.93;100.00;99557.81;5112121;28;20511;-71
2024/02/22 03:30:47;;;;;;;7.45;4.00;;;;;;;9.94;100.00;99553.97;5076675;28;20051;-72
2024/02/22 03:33:35;;;;;;;7.80;4.00;;;;;;;9.94;100.00;99553.19;5097927;28;20071;-72
2024/02/22 03:36:23;;;;;;;6.95;4.00;;;;;;;9.93;100.00;99544.22;5097051;28;20126;-72
2024/02/22 03:39:12;;;;;;;6.63;3.83;;;;;;;9.94;100.00;99547.75;5084582;27;20096;-73
2024/02/22 03:42:00;;;;;;;5.30;3.33;;;;;;;9.95;100.00;99535.75;5103414;27;20184;-72
2024/02/22 03:44:48;;;;;;;8.13;3.70;;;;;;;9.95;100.00;99543.91;5117079;27;20050;-72
2024/02/22 03:47:36;;;;;;;7.38;3.55;;;;;;;9.95;100.00;99522.94;5132204;27;20043;-72
2024/02/22 03:50:24;;;;;;;6.47;4.20;;;;;;;9.95;100.00;99522.94;5076347;28;20078;-72
2024/02/22 03:53:12;;;;;;;6.85;3.45;;;;;;;9.96;100.00;99523.78;5074225;28;20058;-72
2024/02/22 03:56:00;;;;;;;8.27;3.67;;;;;;;9.95;100.00;99514.78;5094969;28;20047;-72
2024/02/22 03:58:48;;;;;;;7.80;3.67;;;;;;;9.95;100.00;99506.63;5112192;28;20040;-72
2024/02/22 04:01:36;;;;;;;10.27;3.72;;;;;;;9.96;100.00;99504.72;5112399;28;20047;-72
2024/02/22 04:04:27;;;;;;;8.30;4.55;;;;;;;9.95;100.00;99494.94;5096156;28;20044;-72
2024/02/22 04:07:15;;;;;;;8.52;4.35;;;;;;;9.95;100.00;99497.66;5112776;28;20484;-72
2024/02/22 04:10:03;;;;;;;8.05;4.30;;;;;;;9.96;100.00;99493.84;5111589;28;20069;-72
2024/02/22 04:12:51;;;;;;;9.55;4.43;;;;;;;9.95;100.00;99498.44;5097345;28;20039;-71
2024/02/22 04:15:39;;;;;;;12.10;4.72;;;;;;;9.95;100.00;99489.50;5098581;28;20483;-72
2024/02/22 04:18:27;;;;;;;8.43;4.15;;;;;;;9.94;100.00;99487.88;5079428;28;20048;-72
2024/02/22 04:21:15;;;;;;;9.75;4.13;;;;;;;9.95;100.00;99490.28;5111209;28;20054;-72
2024/02/22 04:24:03;;;;;;;8.77;4.32;;;;;;;9.96;100.00;99480.25;5075679;28;20063;-72
2024/02/22 04:26:51;;;;;;;9.23;4.18;;;;;;;9.98;100.00;99467.13;5062992;28;20048;-73
2024/02/22 04:29:39;;;;;;;8.57;4.53;;;;;;;9.96;100.00;99475.59;5078758;28;20044;-72
2024/02/22 04:32:27;;;;;;;9.57;4.45;;;;;;;9.97;100.00;99470.97;5077012;28;20048;-72
2024/02/22 04:35:15;;;;;;;9.73;4.22;;;;;;;9.98;100.00;99475.28;5062494;28;20193;-72
2024/02/22 04:38:04;;;;;;;8.60;4.15;;;;;;;9.98;100.00;99473.38;5106589;28;20173;-73
2024/02/22 04:40:52;;;;;;;12.07;4.70;;;;;;;9.97;100.00;99477.19;5097207;28;20122;-72
2024/02/22 04:43:40;;;;;;;11.15;4.60;;;;;;;9.96;100.00;99470.16;5063886;28;20040;-72
2024/02/22 04:46:28;;;;;;;12.10;4.70;;;;;;;9.97;100.00;99465.50;5079388;28;20098;-72
2024/02/22 04:49:16;;;;;;;9.60;4.60;;;;;;;9.97;100.00;99460.06;5080882;28;20048;-72
2024/02/22 04:52:05;;;;;;;7.53;4.03;;;;;;;9.99;100.00;99457.88;5094959;28;20044;-72
2024/02/22 04:54:54;;;;;;;9.68;3.78;;;;;;;9.98;100.00;99456.22;5094384;28;20039;-72
2024/02/22 04:57:42;;;;;;;11.40;4.35;;;;;;;9.97;100.00;99457.34;5101403;28;20036;-73
2024/02/22 05:00:31;;;;;;;12.98;4.60;;;;;;;9.96;100.00;99455.75;5101115;28;20043;-72
2024/02/22 05:03:19;;;;;;;10.63;3.85;;;;;;;9.96;100.00;99442.94;5105485;27;20406;-72
2024/02/22 05:06:07;;;;;;;8.65;4.13;;;;;;;9.95;100.00;99440.50;5137230;27;20047;-72
2024/02/22 05:08:55;;;;;;;10.38;3.53;;;;;;;9.96;100.00;99434.78;5114627;28;20138;-72
2024/02/22 05:11:49;;;;;;;10.73;3.40;;;;;;;9.97;100.00;99439.09;5087441;28;20074;-73
2024/02/22 05:14:37;;;;;;;7.85;3.38;;;;;;;9.96;100.00;99431.25;5068018;28;20043;-71
2024/02/22 05:17:25;;;;;;;9.40;3.30;;;;;;;9.98;100.00;99420.88;5066431;28;20133;-72
2024/02/22 05:20:13;;;;;;;7.72;3.05;;;;;;;9.98;100.00;99423.59;5104465;28;20044;-73
2024/02/22 05:23:01;;;;;;;10.73;3.88;;;;;;;9.97;100.00;99421.97;5113331;28;20436;-72
2024/02/22 05:25:50;;;;;;;10.43;4.25;;;;;;;9.97;100.00;99411.09;5107549;28;20166;-72
2024/02/22 05:28:38;;;;;;;9.32;3.03;;;;;;;9.98;100.00;99418.13;5124311;28;20066;-71
2024/02/22 05:31:29;;;;;;;10.52;3.83;;;;;;;9.96;100.00;99409.50;5121507;28;20058;-69
2024/02/22 05:34:18;;;;;;;11.82;4.60;;;;;;;9.91;100.00;99417.72;5101615;28;20040;-72
2024/02/22 05:37:09;;;;;;;13.52;4.35;;;;;;;9.86;100.00;99415.09;5123096;28;20044;-70
2024/02/22 05:39:58;;;;;;;12.27;4.32;;;;;;;9.84;100.00;99412.69;5111012;28;20063;-71
2024/02/22 05:42:46;;;;;;;9.45;4.07;;;;;;;9.82;100.00;99412.97;5114449;28;20410;-72
2024/02/22 05:45:48;;;;;;;9.55;3.30;;;;;;;9.85;100.00;99397.16;5132869;27;20100;-72
2024/02/22 05:48:36;;;;;;;8.07;3.33;;;;;;;9.85;100.00;99399.88;5094060;27;20043;-72
2024/02/22 05:51:24;;;;;;;11.27;3.42;;;;;;;9.88;100.00;99396.56;5120475;27;20045;-72
2024/02/22 05:54:12;;;;;;;12.13;3.00;;;;;;;9.89;100.00;99387.31;5133998;27;20051;-73
2024/02/22 05:57:01;;;;;;;7.00;3.13;;;;;;;9.86;100.00;99394.16;5111796;28;20185;-72
2024/02/22 05:59:49;;;;;;;9.15;3.03;;;;;;;9.86;100.00;99393.31;5093291;28;20040;-72
2024/02/22 06:02:37;;;;;;;5.32;2.67;;;;;;;9.89;100.00;99381.88;5078846;28;20177;-72
2024/02/22 06:05:26;;;;;;;6.90;2.83;;;;;;;9.94;100.00;99373.63;5099866;28;20408;-72
2024/02/22 06:08:14;;;;;;;10.95;3.80;;;;;;;9.86;100.00;99377.00;5098803;27;20126;-73
2024/02/22 06:11:03;;;;;;;9.38;3.40;;;;;;;9.82;100.00;99369.44;4408444;27;10000730;-72
2024/02/22 06:13:51;;;;;;;6.45;3.03;;;;;;;9.80;100.00;99363.50;5078015;28;20054;-72
2024/02/22 06:16:40;;;;;;;7.90;3.60;;;;;;;9.81;100.00;99345.25;5074516;28;20055;-73
2024/02/22 06:19:28;;;;;;;9.00;3.40;;;;;;;9.74;100.00;99337.50;5096538;28;20051;-72
2024/02/22 06:22:16;;;;;;;10.40;3.58;;;;;;;9.71;100.00;99332.63;5100214;28;20067;-73
2024/02/22 06:25:04;;;;;;;9.23;3.28;;;;;;;9.69;100.00;99334.03;5112113;28;20048;-72
2024/02/22 06:27:53;;;;;;;9.80;3.42;;;;;;;9.71;100.00;99331.84;5095523;28;20056;-72
2024/02/22 06:30:41;;;;;;;8.18;3.70;;;;;;;9.71;100.00;99334.56;5110662;28;20047;-72
2024/02/22 06:33:32;;;;;;;6.78;3.10;;;;;;;9.72;100.00;99331.56;5086720;28;20119;-72
2024/02/22 06:36:21;;;;;;;9.30;3.33;;;;;;;9.70;100.00;99333.75;5084532;28;20456;-72
2024/02/22 06:39:09;;;;;;;6.97;3.10;;;;;;;9.72;100.00;99334.28;5091342;28;20052;-71
2024/02/22 06:41:57;;;;;;;7.95;3.22;;;;;;;9.71;100.00;99338.06;5100537;27;20087;-71
2024/02/22 06:44:45;;;;;;;7.82;3.30;;;;;;;9.71;100.00;99332.63;5093734;28;20047;-72
2024/02/22 06:47:33;;;;;;;10.45;3.72;;;;;;;9.71;100.00;99327.19;5066741;28;20450;-73
2024/02/22 06:50:23;;;;;;;11.07;4.28;;;;;;;9.70;100.00;99325.59;5092985;28;20066;-72
2024/02/22 06:53:11;;;;;;;8.27;4.25;;;;;;;9.70;100.00;99324.78;5110918;28;20083;-72
2024/02/22 06:55:59;;;;;;;8.95;3.40;;;;;;;9.70;100.00;99325.59;5110564;28;20062;-73
2024/02/22 06:58:48;;;;;;;6.50;3.78;;;;;;;9.68;100.00;99316.94;5078364;28;20046;-73
2024/02/22 07:01:36;;;;;;;8.07;4.47;;;;;;;9.68;100.00;99302.53;5073965;28;20051;-72
2024/02/22 07:04:25;;;;;;;7.50;4.50;;;;;;;9.67;100.00;99298.19;5078920;28;20043;-71
2024/02/22 07:07:13;;;;;;;7.97;4.30;;;;;;;9.67;100.00;99298.19;5074552;28;20044;-73
2024/02/22 07:10:03;;;;;;;9.70;4.80;;;;;;;9.65;100.00;99290.34;5060336;28;20044;-73
2024/02/22 07:12:51;;;;;;;8.18;4.85;;;;;;;9.60;100.00;99288.50;5074241;28;20510;-75
2024/02/22 07:15:40;;;;;;;8.80;4.93;;;;;;;9.58;100.00;99279.03;5100374;28;20061;-76
2024/02/22 07:18:28;;;;;;;8.38;5.07;;;;;;;9.55;100.00;99266.06;5107778;28;20054;-73
2024/02/22 07:21:16;;;;;;;11.60;5.50;;;;;;;9.53;100.00;99276.41;5094001;28;20491;-72
2024/02/22 07:24:04;;;;;;;9.18;5.40;;;;;;;9.53;100.00;99265.53;5094565;28;20043;-73
2024/02/22 07:26:52;;;;;;;8.02;5.05;;;;;;;9.55;100.00;99252.47;5109711;28;20488;-72
2024/02/22 07:29:40;;;;;;;9.95;5.15;;;;;;;9.58;100.00;99249.13;5097986;28;20499;-73
2024/02/22 07:32:28;;;;;;;14.55;6.22;;;;;;;9.64;100.00;99242.47;5080440;28;20537;-72
2024/02/22 07:35:17;;;;;;;12.38;5.10;;;;;;;9.69;100.00;99247.84;5081209;28;20123;-72
2024/02/22 07:38:05;;;;;;;13.30;5.57;;;;;;;9.71;100.00;99240.16;5070720;28;20043;-72
2024/02/22 07:40:54;;;;;;;9.23;4.80;;;;;;;9.71;100.00;99245.59;5097798;28;20071;-72
2024/02/22 07:43:43;;;;;;;11.18;4.93;;;;;;;9.74;100.00;99245.03;5111909;28;20050;-72
2024/02/22 07:46:33;;;;;;;14.57;5.97;;;;;;;9.77;100.00;99238.97;5069869;28;20051;-71
2024/02/22 07:49:21;;;;;;;7.30;4.03;;;;;;;9.74;100.00;99231.44;5082978;28;20047;-72
2024/02/22 07:52:09;;;;;;;12.65;5.60;;;;;;;9.77;100.00;99222.66;5112925;28;20078;-73
2024/02/22 07:54:57;;;;;;;8.35;4.05;;;;;;;9.78;100.00;99224.25;5079925;28;20059;-73
2024/02/22 07:57:45;;;;;;;11.45;4.47;;;;;;;9.78;100.00;99213.38;5111960;28;20122;-73
2024/02/22 08:00:33;;;;;;;8.82;3.60;;;;;;;9.79;100.00;99208.78;5098696;28;20131;-72
2024/02/22 08:03:21;;;;;;;5.20;3.50;;;;;;;9.79;100.00;99209.56;5097320;28;20062;-73
2024/02/22 08:06:13;;;;;;;5.63;3.33;;;;;;;9.79;100.00;99204.13;5097103;28;20171;-72
2024/02/22 08:09:02;;;;;;;8.38;3.80;;;;;;;9.80;100.00;99197.56;5097790;28;20052;-72
2024/02/22 08:11:49;;;;;;;8.90;3.85;;;;;;;9.80;100.00;99189.41;5083001;28;20075;-72
2024/02/22 08:14:38;;;;;;;11.65;4.07;;;;;;;9.82;100.00;99179.03;5099076;28;20051;-72
2024/02/22 08:17:26;;;;;;;5.20;3.00;;;;;;;9.82;100.00;99160.00;5080008;28;20046;-72
2024/02/22 08:20:14;;;;;;;10.07;4.05;;;;;;;9.88;100.00;99154.44;5098387;28;20055;-73
2024/02/22 08:23:08;;;;;;;5.97;3.13;;;;;;;9.85;100.00;99146.91;5102314;28;20046;-72
2024/02/22 08:25:57;;;;;;;4.97;3.00;;;;;;;9.81;100.00;99147.50;5115612;28;20062;-73
2024/02/22 08:28:46;;;;;;;4.22;2.80;;;;;;;9.84;100.00;99139.81;5100804;28;20043;-72
2024/02/22 08:31:34;;;;;;;6.30;3.35;;;;;;;9.87;100.00;99125.63;5080924;28;20044;-72
2024/02/22 08:34:23;;;;;;;3.85;2.65;;;;;;;9.88;100.00;99108.19;5097014;28;20131;-72
2024/02/22 08:37:12;;;;;;;4.63;3.00;;;;;;;9.88;100.00;99095.38;5100696;28;20483;-72
2024/02/22 08:40:00;;;;;;;3.88;2.90;;;;;;;9.87;100.00;99095.72;5101038;28;20043;-72
2024/02/22 08:43:01;;;;;;;9.43;4.05;;;;;;;9.89;100.00;99098.94;5114484;28;20058;-73
2024/02/22 08:45:51;;;;;;;6.50;3.13;;;;;;;9.91;100.00;99093.97;5116552;28;20055;-72
2024/02/22 08:48:39;;;;;;;4.78;3.00;;;;;;;9.91;100.00;99092.09;5115739;28;20035;-72
2024/02/22 08:51:27;;;;;;;4.72;3.05;;;;;;;9.90;100.00;99078.78;5115553;28;20035;-72
2024/02/22 08:54:15;;;;;;;4.20;2.40;;;;;;;9.90;100.00;99073.34;5100653;28;20055;-73
2024/02/22 08:57:03;;;;;;;5.57;2.72;;;;;;;9.91;100.00;99074.94;5096831;28;20043;-73
2024/02/22 08:59:51;;;;;;;5.45;3.00;;;;;;;9.92;100.00;99076.56;5115670;28;20043;-73
2024/02/22 09:02:40;;;;;;;5.38;2.78;;;;;;;9.93;100.00;99067.28;5108243;27;20538;-73
2024/02/22 09:05:28;;;;;;;4.32;2.95;;;;;;;9.93;100.00;99062.66;5105806;27;20046;-73
2024/02/22 09:08:17;;;;;;;4.03;2.63;;;;;;;9.96;100.00;99061.25;5126800;27;20040;-73
2024/02/22 09:11:05;;;;;;;5.15;2.75;;;;;;;9.96;100.00;99055.78;5115750;28;20047;-71
2024/02/22 09:13:53;;;;;;;6.28;2.97;;;;;;;10.00;100.00;99029.56;5100494;28;20040;-72
2024/02/22 09:16:41;;;;;;;3.70;2.50;;;;;;;10.01;100.00;99031.19;5115512;28;20050;-71
2024/02/22 09:19:29;;;;;;;3.22;2.50;;;;;;;10.01;100.00;99026.53;5114545;28;20075;-72
2024/02/22 09:22:20;;;;;;;4.55;2.50;;;;;;;9.99;100.00;99012.44;5095940;28;20048;-72
2024/02/22 09:25:10;;;;;;;2.60;2.03;;;;;;;9.96;100.00;98998.66;5079790;28;20515;-73
2024/02/22 09:27:58;;;;;;;2.17;1.98;;;;;;;9.92;100.00;98995.75;5064695;28;20063;-72
2024/02/22 09:30:46;;;;;;;2.40;2.20;;;;;;;9.89;100.00;98973.81;5066005;28;20040;-73
2024/02/22 09:33:34;;;;;;;3.10;2.38;;;;;;;9.89;100.00;98965.66;5108407;27;20048;-72
2024/02/22 09:36:22;;;;;;;3.70;2.00;;;;;;;9.92;100.00;98973.97;5085920;28;20491;-72
2024/02/22 09:39:10;;;;;;;4.00;2.53;;;;;;;9.96;100.00;98968.75;5096097;28;20059;-72
2024/02/22 09:41:59;;;;;;;7.65;2.88;;;;;;;10.06;100.00;98952.16;5137712;28;20060;-71
2024/02/22 09:44:47;;;;;;;3.60;1.77;;;;;;;10.08;100.00;98933.59;5083328;27;20511;-73
2024/02/22 09:47:35;;;;;;;1.65;1.48;;;;;;;10.06;100.00;98903.19;5084125;28;20130;-73
2024/02/22 09:50:24;;;;;;;5.88;2.80;;;;;;;10.11;100.00;98892.16;5098664;28;20107;-74
2024/02/22 09:53:12;;;;;;;2.28;1.88;;;;;;;10.13;100.00;98889.13;5092203;28;20039;-73
2024/02/22 09:56:01;;;;;;;6.18;3.08;;;;;;;10.18;100.00;98897.94;5102131;28;20423;-74
2024/02/22 09:58:49;;;;;;;3.80;2.30;;;;;;;10.22;100.00;98898.13;5087449;28;20039;-74
2024/02/22 10:01:37;;;;;;;3.22;2.22;;;;;;;10.22;100.00;98873.63;5100568;28;20043;-73
2024/02/22 10:04:25;;;;;;;2.17;1.90;;;;;;;10.24;100.00;98866.75;5086034;28;20053;-73
2024/02/22 10:07:31;;;;;;;4.75;2.10;;;;;;;10.25;100.00;98867.56;5079427;28;20052;-73
2024/02/22 10:10:26;;;;;;;1.98;1.35;;;;;;;10.23;100.00;98859.72;5065875;28;20090;-72
2024/02/22 10:13:21;;;;;;;1.40;1.30;;;;;;;10.23;100.00;98854.25;5078422;28;20044;-73
2024/02/22 10:16:11;;;;;;;1.58;1.48;;;;;;;10.25;100.00;98851.25;5065889;28;20040;-72
2024/02/22 10:19:02;;;;;;;1.63;1.52;;;;;;;10.21;100.00;98823.84;5108155;27;20038;-74
2024/02/22 10:21:56;;;;;;;2.05;1.40;;;;;;;10.20;100.00;98833.13;5071060;28;20148;-67
2024/02/22 10:24:44;;;;;;;1.50;1.40;;;;;;;10.25;100.00;98818.59;5099048;28;20047;-68
2024/02/22 10:27:32;;;;;;;2.88;1.60;;;;;;;10.30;100.00;98831.28;5084242;28;20513;-68
2024/02/22 10:30:20;;;;;;;2.53;1.60;;;;;;;10.33;100.00;98830.63;5114038;27;20044;-68
2024/02/22 10:33:09;;;;;;;5.32;2.50;;;;;;;10.38;100.00;98839.47;5091271;27;20043;-70
2024/02/22 10:36:01;;;;;;;3.10;2.00;;;;;;;10.39;100.00;98822.03;5133666;27;20055;-68
2024/02/22 10:38:51;;;;;;;2.58;1.75;;;;;;;10.47;100.00;98815.00;5133580;27;20522;-69
2024/02/22 10:41:39;;;;;;;4.28;2.40;;;;;;;10.53;100.00;98808.25;5118769;27;20510;-69
2024/02/22 10:44:27;;;;;;;3.67;2.17;;;;;;;10.50;100.00;98798.00;5102620;28;20126;-69
2024/02/22 10:47:15;;;;;;;2.28;1.70;;;;;;;10.47;100.00;98776.88;5097705;28;20082;-69
2024/02/22 10:50:05;;;;;;;3.55;1.95;;;;;;;10.50;100.00;98767.25;5098686;28;20522;-70
2024/02/22 10:52:54;;;;;;;4.43;2.05;;;;;;;10.50;100.00;98759.88;5084647;28;20097;-69
2024/02/22 10:55:50;;;;;;;6.65;2.83;;;;;;;10.55;100.00;98753.50;5112501;28;20039;-69
2024/02/22 10:58:39;;;;;;;5.45;2.10;;;;;;;10.55;100.00;98735.22;5103067;28;20040;-69
2024/02/22 11:01:27;;;;;;;2.15;1.60;;;;;;;10.55;100.00;98729.78;5098420;28;20036;-69
2024/02/22 11:04:16;;;;;;;5.53;1.80;;;;;;;10.58;100.00;98723.72;5097335;28;20043;-69
2024/02/22 11:07:07;;;;;;;4.30;1.45;;;;;;;10.60;100.00;98715.22;5100574;28;20114;-69
2024/02/22 11:10:06;;;;;;;1.88;1.67;;;;;;;10.59;100.00;98703.53;5103643;28;20125;-69
2024/02/22 11:13:03;;;;;;;1.83;1.42;;;;;;;10.62;100.00;98685.75;5112115;28;20412;-68
2024/02/22 11:15:51;;;;;;;1.60;1.50;;;;;;;10.60;100.00;98690.69;5097358;28;20046;-67
2024/02/22 11:18:39;;;;;;;4.90;1.70;;;;;;;10.58;100.00;98684.78;5113015;28;20414;-69
2024/02/22 11:21:29;;;;;;;1.98;1.80;;;;;;;10.55;100.00;98688.94;5120295;27;20062;-68
2024/02/22 11:24:24;;;;;;;3.55;1.90;;;;;;;10.54;100.00;98675.66;5132629;27;20066;-68
2024/02/22 11:27:22;;;;;;;7.50;2.63;;;;;;;10.56;100.00;98665.22;5132698;27;20126;-69
2024/02/22 11:30:16;;;;;;;4.80;2.30;;;;;;;10.57;100.00;98654.03;5132952;27;20495;-69
2024/02/22 11:33:05;;;;;;;4.63;2.22;;;;;;;10.59;100.00;98642.81;5129355;27;20085;-69
2024/02/22 11:35:54;;;;;;;7.22;2.55;;;;;;;10.59;100.00;98638.16;5096327;28;20416;-69
2024/02/22 11:38:42;;;;;;;4.20;1.70;;;;;;;10.60;100.00;98623.41;5083820;28;20044;-68
2024/02/22 11:41:31;;;;;;;2.28;1.55;;;;;;;10.62;100.00;98609.50;5069323;28;20130;-69
2024/02/22 11:44:28;;;;;;;3.64;1.77;;;;;;;10.61;100.00;98603.25;4735260;27;10002908;-68
2024/02/22 11:47:17;;;;;;;4.13;2.00;;;;;;;10.63;100.00;98587.41;5107867;28;20047;-69
2024/02/22 11:50:06;;;;;;;1.58;1.42;;;;;;;10.64;100.00;98580.03;5094170;28;20043;-69
2024/02/22 11:52:55;;;;;;;3.08;1.90;;;;;;;10.62;100.00;98555.81;5095936;28;20166;-69
2024/02/22 11:55:43;;;;;;;2.30;1.70;;;;;;;10.64;100.00;98531.00;5094198;28;20055;-69
2024/02/22 11:58:32;;;;;;;3.63;1.70;;;;;;;10.64;100.00;98514.66;5079968;28;20774;-68
2024/02/22 12:01:20;;;;;;;2.95;1.90;;;;;;;10.65;100.00;98508.91;5109396;28;20157;-69
2024/02/22 12:04:09;;;;;;;3.10;1.80;;;;;;;10.66;100.00;98496.88;5094411;28;20044;-69
2024/02/22 12:06:58;;;;;;;2.63;1.83;;;;;;;10.68;100.00;98493.00;5095190;28;20142;-69
2024/02/22 12:09:47;;;;;;;2.75;1.55;;;;;;;10.70;100.00;98479.88;5109217;28;20046;-68
2024/02/22 12:12:35;;;;;;;4.68;1.90;;;;;;;10.72;100.00;98462.06;5093924;28;20039;-68
2024/02/22 12:15:25;;;;;;;2.17;1.63;;;;;;;10.81;100.00;98453.88;5079857;28;20062;-69
2024/02/22 12:18:16;;;;;;;1.50;1.40;;;;;;;10.82;100.00;98433.66;5092464;28;20047;-69
2024/02/22 12:21:09;;;;;;;2.05;1.30;;;;;;;10.84;100.00;98420.53;5092652;28;20054;-69
2024/02/22 12:24:01;;;;;;;4.50;1.77;;;;;;;10.84;100.00;98404.97;5074446;28;20040;-68
2024/02/22 12:26:53;;;;;;;2.08;1.63;;;;;;;10.85;100.00;98398.41;5072934;28;20182;-68
2024/02/22 12:29:41;;;;;;;2.00;1.60;;;;;;;10.86;100.00;98400.00;5087830;28;20133;-68
2024/02/22 12:32:29;;;;;;;2.05;1.77;;;;;;;10.90;100.00;98386.53;5086578;28;20636;-69
2024/02/22 12:35:17;;;;;;;2.42;1.67;;;;;;;10.95;100.00;98372.72;5073617;28;20080;-69
2024/02/22 12:38:07;;;;;;;2.25;1.73;;;;;;;10.97;100.00;98361.50;5072967;28;20047;-69
2024/02/22 12:40:55;;;;;;;2.47;1.40;;;;;;;10.99;100.00;98351.03;5087473;28;20044;-68
2024/02/22 12:43:47;;;;;;;2.97;1.60;;;;;;;10.98;100.00;98328.44;5073519;28;20051;-68
2024/02/22 12:46:38;;;;;;;1.75;1.48;;;;;;;11.00;100.00;98320.75;5060328;28;20047;-68
2024/02/22 12:49:28;;;;;;;3.90;2.05;;;;;;;11.08;100.00;98303.50;5060164;28;20408;-68
2024/02/22 12:52:17;;;;;;;3.15;1.63;;;;;;;11.14;100.00;98297.88;5101045;28;20058;-68
2024/02/22 12:55:05;;;;;;;3.17;2.05;;;;;;;11.14;100.00;98292.44;5086438;28;20391;-67
2024/02/22 12:57:53;;;;;;;2.40;1.60;;;;;;;11.14;100.00;98287.00;5113605;28;20043;-68
2024/02/22 13:00:41;;;;;;;4.28;2.25;;;;;;;11.16;100.00;98274.63;5127159;28;20044;-68
2024/02/22 13:03:30;;;;;;;2.03;1.20;;;;;;;11.16;100.00;98268.34;5077210;28;20055;-68
2024/02/22 13:06:18;;;;;;;3.70;1.65;;;;;;;11.19;100.00;98262.25;5074117;28;20101;-69
2024/02/22 13:09:07;;;;;;;1.42;1.33;;;;;;;11.21;100.00;98243.63;5076755;28;20464;-68
2024/02/22 13:11:55;;;;;;;1.30;1.10;;;;;;;11.21;100.00;98227.28;5112057;27;20043;-69